createdAt,value
2019-06-26T00:02:14.327Z,22.26
2019-06-26T00:04:43.259Z,22.16
2019-06-26T00:07:12.074Z,21.96
2019-06-26T00:09:41.001Z,21.91
2019-06-26T00:12:10.031Z,21.81
2019-06-26T00:14:39.146Z,21.72
2019-06-26T00:17:08.166Z,21.74
2019-06-26T00:19:37.034Z,21.69
2019-06-26T00:22:05.939Z,21.68
2019-06-26T00:27:05.290Z,21.72
2019-06-26T00:29:34.404Z,21.66
2019-06-26T00:32:03.348Z,21.59
2019-06-26T00:34:31.995Z,21.59
2019-06-26T00:37:00.910Z,21.49
2019-06-26T00:39:29.714Z,21.41
2019-06-26T00:41:59.458Z,21.33
2019-06-26T00:44:28.511Z,21.27
2019-06-26T00:46:57.245Z,21.21
2019-06-26T00:49:26.162Z,21.16
2019-06-26T00:51:55.009Z,21.13
2019-06-26T00:54:23.625Z,21.21
2019-06-26T00:56:52.513Z,21.22
2019-06-26T00:59:21.279Z,21.21
2019-06-26T01:01:50.279Z,21.22
2019-06-26T01:04:23.660Z,21.16
2019-06-26T01:06:52.724Z,21.18
2019-06-26T01:09:21.688Z,21.09
2019-06-26T01:11:50.401Z,20.99
2019-06-26T01:14:19.338Z,20.98
2019-06-26T01:16:48.105Z,20.99
2019-06-26T01:19:16.896Z,20.98
2019-06-26T01:21:46.136Z,21.06
2019-06-26T01:24:14.804Z,21.08
2019-06-26T01:26:43.816Z,21.08
2019-06-26T01:29:12.687Z,21.14
2019-06-26T01:31:41.704Z,21.06
2019-06-26T01:34:10.714Z,21.10
2019-06-26T01:36:40.213Z,21.10
2019-06-26T01:39:08.883Z,21.01
2019-06-26T01:41:38.185Z,20.70
2019-06-26T01:44:14.920Z,20.73
2019-06-26T01:46:37.623Z,20.89
2019-06-26T01:49:06.670Z,20.94
2019-06-26T01:51:35.818Z,20.93
2019-06-26T01:54:05.139Z,20.97
2019-06-26T01:56:34.393Z,20.97
2019-06-26T01:59:03.270Z,21.00
2019-06-26T02:01:32.414Z,20.79
2019-06-26T02:04:01.131Z,20.77
2019-06-26T02:06:30.593Z,20.67
2019-06-26T02:08:59.378Z,20.67
2019-06-26T02:11:28.444Z,20.64
2019-06-26T02:13:57.703Z,20.82
2019-06-26T02:16:26.774Z,20.79
2019-06-26T02:18:59.329Z,20.76
2019-06-26T02:21:28.493Z,20.63
2019-06-26T02:23:57.169Z,20.63
2019-06-26T02:26:26.335Z,20.66
2019-06-26T02:28:55.292Z,20.57
2019-06-26T02:31:24.058Z,20.50
2019-06-26T02:33:53.007Z,20.44
2019-06-26T02:36:21.800Z,20.49
2019-06-26T02:38:50.647Z,20.43
2019-06-26T02:41:19.557Z,20.40
2019-06-26T02:43:48.360Z,20.29
2019-06-26T02:46:17.312Z,20.25
2019-06-26T02:48:46.596Z,20.35
2019-06-26T02:51:15.757Z,20.22
2019-06-26T02:53:44.731Z,20.25
2019-06-26T02:56:13.577Z,20.25
2019-06-26T02:58:42.859Z,20.33
2019-06-26T03:01:11.779Z,20.29
2019-06-26T03:03:40.928Z,20.34
2019-06-26T03:06:09.744Z,20.29
2019-06-26T03:08:38.748Z,20.26
2019-06-26T03:11:07.861Z,20.29
2019-06-26T03:13:36.782Z,20.33
2019-06-26T03:16:05.769Z,20.39
2019-06-26T03:18:34.798Z,20.48
2019-06-26T03:21:03.890Z,20.42
2019-06-26T03:23:33.440Z,20.49
2019-06-26T03:26:02.638Z,20.45
2019-06-26T03:28:31.588Z,20.39
2019-06-26T03:31:00.303Z,20.42
2019-06-26T03:33:29.340Z,20.44
2019-06-26T03:35:57.970Z,20.49
2019-06-26T03:38:27.015Z,20.62
2019-06-26T03:40:55.951Z,20.69
2019-06-26T03:43:24.999Z,20.73
2019-06-26T03:45:53.784Z,20.90
2019-06-26T03:48:22.936Z,20.89
2019-06-26T03:50:51.614Z,20.98
2019-06-26T03:53:20.678Z,20.91
2019-06-26T03:55:50.251Z,21.00
2019-06-26T03:58:18.993Z,20.99
2019-06-26T04:00:48.218Z,21.00
2019-06-26T04:03:16.987Z,21.03
2019-06-26T04:05:45.775Z,20.95
2019-06-26T04:08:14.654Z,21.03
2019-06-26T04:10:43.826Z,21.05
2019-06-26T04:13:12.699Z,21.15
2019-06-26T04:15:42.949Z,21.24
2019-06-26T04:18:12.015Z,21.28
2019-06-26T04:20:41.189Z,21.31
2019-06-26T04:23:10.185Z,21.34
2019-06-26T04:25:39.511Z,21.37
2019-06-26T04:28:08.273Z,21.39
2019-06-26T04:30:37.127Z,21.33
2019-06-26T04:33:06.213Z,21.38
2019-06-26T04:35:35.339Z,21.51
2019-06-26T04:38:04.224Z,21.49
2019-06-26T04:40:33.202Z,21.53
2019-06-26T04:43:01.895Z,21.55
2019-06-26T04:45:33.069Z,21.69
2019-06-26T04:48:22.932Z,21.76
2019-06-26T04:51:15.342Z,21.81
2019-06-26T04:53:44.959Z,21.91
2019-06-26T04:56:13.755Z,21.98
2019-06-26T04:58:42.399Z,22.07
2019-06-26T05:01:11.066Z,22.10
2019-06-26T05:03:40.098Z,22.16
2019-06-26T05:06:08.907Z,22.19
2019-06-26T05:08:38.274Z,22.30
2019-06-26T05:11:07.324Z,22.37
2019-06-26T05:13:36.118Z,22.31
2019-06-26T05:16:15.115Z,22.40
2019-06-26T05:18:35.993Z,22.48
2019-06-26T05:21:04.937Z,22.58
2019-06-26T05:23:33.788Z,22.65
2019-06-26T05:26:02.735Z,22.66
2019-06-26T05:28:31.427Z,22.79
2019-06-26T05:31:00.194Z,22.90
2019-06-26T05:33:29.169Z,23.01
2019-06-26T05:35:58.077Z,23.08
2019-06-26T05:38:27.161Z,23.16
2019-06-26T05:40:56.163Z,23.31
2019-06-26T05:43:26.405Z,23.42
2019-06-26T05:45:55.393Z,23.49
2019-06-26T05:48:24.376Z,23.58
2019-06-26T05:50:53.181Z,23.69
2019-06-26T05:53:22.562Z,23.80
2019-06-26T05:55:51.338Z,23.94
2019-06-26T05:58:20.372Z,24.06
2019-06-26T06:00:49.077Z,24.23
2019-06-26T06:03:17.924Z,24.36
2019-06-26T06:05:47.203Z,24.48
2019-06-26T06:08:16.101Z,24.64
2019-06-26T06:10:45.418Z,24.80
2019-06-26T06:13:14.091Z,24.94
2019-06-26T06:15:44.679Z,25.10
2019-06-26T06:18:13.873Z,25.26
2019-06-26T06:20:42.965Z,25.33
2019-06-26T06:23:12.412Z,25.49
2019-06-26T06:25:41.124Z,25.55
2019-06-26T06:28:09.914Z,25.61
2019-06-26T06:30:38.971Z,25.73
2019-06-26T06:33:07.637Z,25.80
2019-06-26T06:35:36.312Z,25.93
2019-06-26T06:38:05.513Z,26.00
2019-06-26T06:40:34.773Z,26.18
2019-06-26T06:43:03.437Z,26.25
2019-06-26T06:45:32.847Z,26.42
2019-06-26T06:48:01.526Z,26.50
2019-06-26T06:50:30.530Z,26.63
2019-06-26T06:53:00.404Z,26.80
2019-06-26T06:55:29.119Z,26.99
2019-06-26T06:57:57.935Z,27.04
2019-06-26T07:00:27.297Z,27.08
2019-06-26T07:02:56.300Z,27.14
2019-06-26T07:05:25.161Z,27.23
2019-06-26T07:07:53.926Z,27.36
2019-06-26T07:10:22.641Z,27.50
2019-06-26T07:12:51.869Z,27.66
2019-06-26T07:15:20.841Z,27.78
2019-06-26T07:17:50.291Z,27.88
2019-06-26T07:20:19.174Z,27.95
2019-06-26T07:22:48.578Z,28.13
2019-06-26T07:25:17.518Z,28.23
2019-06-26T07:27:46.439Z,28.38
2019-06-26T07:30:15.702Z,28.56
2019-06-26T07:32:44.349Z,28.61
2019-06-26T07:35:13.347Z,28.69
2019-06-26T07:37:42.279Z,28.88
2019-06-26T07:40:11.410Z,29.01
2019-06-26T07:42:40.349Z,29.10
2019-06-26T07:45:09.670Z,29.16
2019-06-26T07:47:43.619Z,29.30
2019-06-26T07:50:09.470Z,29.44
2019-06-26T07:52:38.409Z,29.59
2019-06-26T07:55:11.630Z,29.79
2019-06-26T07:57:38.979Z,29.93
2019-06-26T08:00:08.726Z,30.05
2019-06-26T08:02:37.514Z,30.15
2019-06-26T08:05:07.161Z,30.28
2019-06-26T08:07:36.100Z,30.36
2019-06-26T08:10:06.261Z,30.48
2019-06-26T08:12:34.994Z,30.59
2019-06-26T08:15:04.349Z,30.63
2019-06-26T08:17:33.513Z,30.78
2019-06-26T08:20:02.453Z,30.92
2019-06-26T08:22:31.581Z,31.08
2019-06-26T08:25:00.277Z,31.16
2019-06-26T08:27:29.169Z,31.29
2019-06-26T08:30:00.666Z,31.47
2019-06-26T08:32:39.957Z,31.60
2019-06-26T08:35:05.989Z,31.57
2019-06-26T08:37:35.437Z,31.66
2019-06-26T08:40:04.586Z,31.61
2019-06-26T08:42:33.348Z,31.76
2019-06-26T08:45:01.964Z,31.87
2019-06-26T08:47:30.968Z,31.86
2019-06-26T08:49:59.897Z,31.88
2019-06-26T08:52:28.786Z,31.95
2019-06-26T08:54:57.909Z,32.05
2019-06-26T08:57:32.015Z,32.18
2019-06-26T09:00:01.387Z,32.32
2019-06-26T09:02:30.481Z,32.22
2019-06-26T09:04:59.507Z,32.22
2019-06-26T09:07:28.529Z,32.10
2019-06-26T09:09:58.106Z,32.21
2019-06-26T09:12:26.793Z,32.14
2019-06-26T09:14:55.864Z,32.40
2019-06-26T09:17:25.429Z,32.36
2019-06-26T09:19:54.289Z,32.45
2019-06-26T09:22:23.664Z,32.43
2019-06-26T09:24:52.812Z,32.52
2019-06-26T09:27:21.778Z,32.50
2019-06-26T09:29:50.731Z,32.38
2019-06-26T09:32:19.729Z,32.54
2019-06-26T09:34:48.789Z,32.50
2019-06-26T09:37:17.734Z,32.37
2019-06-26T09:39:46.921Z,32.35
2019-06-26T09:42:19.313Z,32.41
2019-06-26T09:44:46.948Z,32.35
2019-06-26T09:47:15.875Z,32.28
2019-06-26T09:49:44.649Z,32.38
2019-06-26T09:52:13.687Z,32.32
2019-06-26T09:54:42.824Z,32.31
2019-06-26T09:57:11.613Z,32.33
2019-06-26T09:59:40.453Z,32.36
2019-06-26T10:02:09.357Z,32.51
2019-06-26T10:04:38.450Z,32.47
2019-06-26T10:07:07.484Z,32.52
2019-06-26T10:09:36.373Z,32.66
2019-06-26T10:12:05.478Z,32.55
2019-06-26T10:14:46.549Z,32.81
2019-06-26T10:17:05.049Z,32.97
2019-06-26T10:19:33.924Z,33.09
2019-06-26T10:22:03.162Z,33.18
2019-06-26T10:24:32.203Z,33.15
2019-06-26T10:27:01.038Z,32.89
2019-06-26T10:29:29.754Z,32.86
2019-06-26T10:31:59.400Z,33.05
2019-06-26T10:34:28.554Z,33.08
2019-06-26T10:36:57.730Z,33.27
2019-06-26T10:39:26.757Z,33.34
2019-06-26T10:41:55.997Z,33.30
2019-06-26T10:44:24.901Z,33.26
2019-06-26T10:46:53.834Z,33.25
2019-06-26T10:49:27.594Z,33.51
2019-06-26T10:51:53.618Z,33.62
2019-06-26T10:54:22.231Z,33.61
2019-06-26T10:56:51.520Z,33.64
2019-06-26T10:59:20.178Z,33.62
2019-06-26T11:01:48.956Z,33.34
2019-06-26T11:04:18.033Z,33.59
2019-06-26T11:06:46.787Z,33.74
2019-06-26T11:09:15.804Z,34.13
2019-06-26T11:11:45.762Z,34.05
2019-06-26T11:14:15.197Z,34.20
2019-06-26T11:16:44.223Z,34.19
2019-06-26T11:19:16.273Z,34.24
2019-06-26T11:21:45.370Z,34.13
2019-06-26T11:24:14.169Z,34.02
2019-06-26T11:26:43.304Z,34.06
2019-06-26T11:29:12.216Z,33.86
2019-06-26T11:31:40.900Z,33.29
2019-06-26T11:34:09.846Z,32.95
2019-06-26T11:36:38.902Z,33.08
2019-06-26T11:39:08.649Z,32.55
2019-06-26T11:41:37.718Z,32.85
2019-06-26T11:44:06.830Z,33.39
2019-06-26T11:46:38.221Z,33.11
2019-06-26T11:49:07.240Z,33.25
2019-06-26T11:51:36.026Z,32.76
2019-06-26T11:54:04.753Z,32.47
2019-06-26T11:56:34.112Z,32.68
2019-06-26T11:59:03.061Z,32.68
2019-06-26T12:01:32.153Z,32.61
2019-06-26T12:04:00.844Z,32.89
2019-06-26T12:06:29.817Z,32.73
2019-06-26T12:08:58.679Z,32.39
2019-06-26T12:11:27.693Z,32.36
2019-06-26T12:13:56.972Z,31.96
2019-06-26T12:16:25.900Z,32.03
2019-06-26T12:18:54.971Z,32.03
2019-06-26T12:21:24.156Z,32.33
2019-06-26T12:23:52.815Z,32.29
2019-06-26T12:26:21.864Z,31.88
2019-06-26T12:28:51.022Z,31.70
2019-06-26T12:31:20.060Z,31.84
2019-06-26T12:33:48.767Z,31.88
2019-06-26T12:36:17.643Z,31.87
2019-06-26T12:38:46.297Z,31.73
2019-06-26T12:41:15.745Z,31.71
2019-06-26T12:43:44.941Z,31.40
2019-06-26T12:46:17.892Z,31.49
2019-06-26T12:48:44.511Z,31.53
2019-06-26T12:51:13.890Z,31.36
2019-06-26T12:53:42.837Z,30.96
2019-06-26T12:56:12.663Z,31.22
2019-06-26T12:58:42.285Z,31.31
2019-06-26T13:01:10.971Z,31.42
2019-06-26T13:03:40.048Z,31.55
2019-06-26T13:06:09.132Z,31.34
2019-06-26T13:08:38.137Z,30.98
2019-06-26T13:11:06.840Z,30.84
2019-06-26T13:13:36.502Z,30.58
2019-06-26T13:16:05.311Z,31.08
2019-06-26T13:18:34.077Z,30.61
2019-06-26T13:21:05.190Z,30.82
2019-06-26T13:23:33.669Z,30.75
2019-06-26T13:26:02.887Z,31.46
2019-06-26T13:28:31.959Z,31.34
2019-06-26T13:31:00.802Z,31.43
2019-06-26T13:33:30.141Z,31.11
2019-06-26T13:36:00.302Z,31.29
2019-06-26T13:38:29.812Z,31.37
2019-06-26T13:40:58.875Z,31.19
2019-06-26T13:43:27.502Z,31.12
2019-06-26T13:45:58.836Z,30.88
2019-06-26T13:49:55.748Z,30.79
2019-06-26T13:52:24.467Z,31.45
2019-06-26T13:54:53.177Z,31.07
2019-06-26T13:57:22.198Z,31.70
2019-06-26T13:59:51.461Z,31.29
2019-06-26T14:02:20.194Z,31.57
2019-06-26T14:04:49.356Z,31.35
2019-06-26T14:07:18.098Z,31.36
2019-06-26T14:09:47.570Z,31.37
2019-06-26T14:12:19.162Z,31.25
2019-06-26T14:14:57.275Z,31.33
2019-06-26T14:17:18.363Z,31.30
2019-06-26T14:19:47.066Z,31.44
2019-06-26T14:22:16.458Z,31.27
2019-06-26T14:24:45.192Z,31.42
2019-06-26T14:27:14.147Z,31.27
2019-06-26T14:29:43.210Z,31.05
2019-06-26T14:32:12.096Z,31.17
2019-06-26T14:34:40.961Z,31.31
2019-06-26T14:37:10.182Z,31.57
2019-06-26T14:39:41.060Z,31.21
2019-06-26T14:42:09.602Z,31.08
2019-06-26T14:44:38.628Z,30.91
2019-06-26T14:47:07.308Z,30.94
2019-06-26T14:49:36.396Z,30.51
2019-06-26T14:52:05.332Z,30.60
2019-06-26T14:54:34.151Z,30.28
2019-06-26T14:57:03.470Z,30.24
2019-06-26T14:59:32.353Z,30.35
2019-06-26T15:02:01.486Z,30.92
2019-06-26T15:04:30.317Z,30.61
2019-06-26T15:06:59.036Z,30.81
2019-06-26T15:09:27.955Z,30.69
2019-06-26T15:11:57.127Z,30.88
2019-06-26T15:14:26.116Z,30.93
2019-06-26T15:16:55.032Z,30.66
2019-06-26T15:19:24.190Z,30.32
2019-06-26T15:21:58.250Z,29.80
2019-06-26T15:24:23.794Z,29.55
2019-06-26T15:26:52.738Z,29.73
2019-06-26T15:29:21.945Z,29.70
2019-06-26T15:31:50.940Z,29.38
2019-06-26T15:34:19.696Z,29.61
2019-06-26T15:36:48.798Z,28.87
2019-06-26T15:39:17.702Z,29.05
2019-06-26T15:41:46.987Z,29.69
2019-06-26T15:44:15.747Z,29.52
2019-06-26T15:46:44.438Z,29.57
2019-06-26T15:49:13.535Z,29.89
2019-06-26T15:51:42.250Z,29.51
2019-06-26T15:54:11.497Z,29.21
2019-06-26T15:56:40.452Z,28.71
2019-06-26T15:59:09.445Z,29.08
2019-06-26T16:01:38.991Z,29.20
2019-06-26T16:04:07.996Z,28.99
2019-06-26T16:06:37.435Z,29.06
2019-06-26T16:09:06.796Z,28.76
2019-06-26T16:11:35.965Z,28.79
2019-06-26T16:14:04.890Z,28.60
2019-06-26T16:16:35.552Z,28.62
2019-06-26T16:19:09.066Z,28.74
2019-06-26T16:21:38.090Z,28.60
2019-06-26T16:24:07.211Z,28.48
2019-06-26T16:26:36.175Z,28.13
2019-06-26T16:29:05.131Z,28.13
2019-06-26T16:31:34.095Z,28.20
2019-06-26T16:34:03.221Z,27.88
2019-06-26T16:36:32.722Z,27.85
2019-06-26T16:39:01.487Z,28.10
2019-06-26T16:41:30.501Z,28.04
2019-06-26T16:43:59.539Z,27.86
2019-06-26T16:46:28.306Z,27.49
2019-06-26T16:48:57.340Z,27.54
2019-06-26T16:51:26.251Z,27.19
2019-06-26T16:53:55.319Z,27.25
2019-06-26T16:56:24.528Z,27.37
2019-06-26T16:58:53.189Z,27.03
2019-06-26T17:01:22.082Z,26.96
2019-06-26T17:03:50.873Z,27.07
2019-06-26T17:06:19.701Z,26.99
2019-06-26T17:08:48.671Z,27.23
2019-06-26T17:11:17.894Z,26.89
2019-06-26T17:13:47.076Z,26.69
2019-06-26T17:16:16.454Z,26.74
2019-06-26T17:18:45.662Z,26.65
2019-06-26T17:21:14.739Z,26.78
2019-06-26T17:23:43.700Z,26.43
2019-06-26T17:26:12.761Z,26.15
2019-06-26T17:28:41.528Z,25.65
2019-06-26T17:31:10.887Z,25.90
2019-06-26T17:33:39.768Z,25.81
2019-06-26T17:36:08.806Z,25.34
2019-06-26T17:38:37.859Z,25.78
2019-06-26T17:41:06.697Z,25.84
2019-06-26T17:43:35.678Z,25.55
2019-06-26T17:46:04.698Z,25.13
2019-06-26T17:48:33.632Z,25.16
2019-06-26T17:51:02.399Z,25.14
2019-06-26T17:53:31.375Z,24.85
2019-06-26T17:56:00.283Z,24.44
2019-06-26T17:58:29.616Z,24.47
2019-06-26T18:00:58.936Z,24.26
2019-06-26T18:03:27.800Z,24.22
2019-06-26T18:05:56.487Z,23.81
2019-06-26T18:08:25.801Z,23.51
2019-06-26T18:10:54.514Z,23.45
2019-06-26T18:13:23.812Z,23.13
2019-06-26T18:15:53.021Z,22.81
2019-06-26T18:18:21.964Z,22.69
2019-06-26T18:20:51.147Z,22.55
2019-06-26T18:23:33.630Z,22.37
2019-06-26T18:25:54.241Z,22.14
2019-06-26T18:28:21.517Z,21.60
2019-06-26T18:30:50.287Z,21.65
2019-06-26T18:33:21.855Z,21.74
2019-06-26T18:35:50.882Z,21.42
2019-06-26T18:38:20.072Z,21.31
2019-06-26T18:40:49.207Z,21.03
2019-06-26T18:43:17.885Z,21.01
2019-06-26T18:45:46.857Z,20.91
2019-06-26T18:48:15.553Z,20.85
2019-06-26T18:50:44.955Z,20.86
2019-06-26T18:53:13.646Z,20.86
2019-06-26T18:55:42.738Z,20.59
2019-06-26T18:58:11.487Z,20.61
2019-06-26T19:00:40.637Z,20.38
2019-06-26T19:03:09.323Z,20.19
2019-06-26T19:05:38.695Z,20.18
2019-06-26T19:08:09.200Z,20.02
2019-06-26T19:10:38.762Z,19.85
2019-06-26T19:13:09.516Z,19.86
2019-06-26T19:15:38.867Z,19.73
2019-06-26T19:18:08.166Z,19.55
2019-06-26T19:20:39.969Z,19.51
2019-06-26T19:23:14.230Z,19.41
2019-06-26T19:25:46.261Z,19.28
2019-06-26T19:28:14.922Z,19.34
2019-06-26T19:30:43.745Z,19.22
2019-06-26T19:33:12.622Z,19.19
2019-06-26T19:35:44.515Z,19.09
2019-06-26T19:38:13.549Z,19.15
2019-06-26T19:40:42.609Z,19.16
2019-06-26T19:43:11.709Z,19.05
2019-06-26T19:45:40.529Z,18.97
2019-06-26T19:48:09.467Z,18.99
2019-06-26T19:50:38.319Z,18.83
2019-06-26T19:53:07.478Z,18.78
2019-06-26T19:55:36.416Z,18.79
2019-06-26T19:58:05.281Z,18.84
2019-06-26T20:00:33.959Z,18.85
2019-06-26T20:03:02.796Z,18.87
2019-06-26T20:05:32.012Z,18.97
2019-06-26T20:08:02.350Z,18.99
2019-06-26T20:10:31.209Z,18.97
2019-06-26T20:13:00.365Z,18.97
2019-06-26T20:15:29.250Z,19.01
2019-06-26T20:17:58.138Z,18.91
2019-06-26T20:20:27.084Z,18.97
2019-06-26T20:22:56.093Z,19.04
2019-06-26T20:25:24.695Z,18.79
2019-06-26T20:27:56.806Z,18.82
2019-06-26T20:30:27.273Z,18.75
2019-06-26T20:32:55.916Z,18.75
2019-06-26T20:35:24.804Z,18.77
2019-06-26T20:37:53.757Z,18.85
2019-06-26T20:40:22.815Z,18.92
2019-06-26T20:42:52.043Z,18.83
2019-06-26T20:45:21.056Z,18.81
2019-06-26T20:47:49.958Z,18.64
2019-06-26T20:50:18.866Z,18.65
2019-06-26T20:52:47.564Z,18.62
2019-06-26T20:55:17.054Z,18.52
2019-06-26T20:58:06.129Z,18.47
2019-06-26T21:00:41.056Z,18.52
2019-06-26T21:03:10.021Z,18.59
2019-06-26T21:05:39.225Z,18.63
2019-06-26T21:08:08.199Z,18.61
2019-06-26T21:10:36.839Z,18.69
2019-06-26T21:13:05.879Z,18.81
2019-06-26T21:15:34.771Z,18.76
2019-06-26T21:18:03.693Z,18.69
2019-06-26T21:20:33.206Z,18.68
2019-06-26T21:23:02.202Z,18.75
2019-06-26T21:25:30.885Z,18.66
2019-06-26T21:28:00.045Z,18.73
2019-06-26T21:30:28.970Z,18.69
2019-06-26T21:32:58.169Z,18.63
2019-06-26T21:35:27.132Z,18.59
2019-06-26T21:37:56.017Z,18.67
2019-06-26T21:40:29.185Z,18.59
2019-06-26T21:43:17.185Z,18.42
2019-06-26T21:45:46.103Z,18.38
2019-06-26T21:48:15.194Z,18.36
2019-06-26T21:50:44.158Z,18.32
2019-06-26T21:53:13.046Z,18.18
2019-06-26T21:55:41.921Z,18.21
2019-06-26T21:58:10.590Z,18.21
2019-06-26T22:00:40.458Z,18.17
2019-06-26T22:03:09.533Z,18.03
2019-06-26T22:05:38.560Z,18.08
2019-06-26T22:08:07.422Z,18.02
2019-06-26T22:10:36.415Z,17.97
2019-06-26T22:13:05.294Z,18.05
2019-06-26T22:15:34.012Z,18.13
2019-06-26T22:18:02.701Z,18.02
2019-06-26T22:20:31.419Z,17.77
2019-06-26T22:23:00.683Z,17.82
2019-06-26T22:25:29.321Z,17.74
2019-06-26T22:27:58.464Z,17.82
2019-06-26T22:30:27.370Z,17.73
2019-06-26T22:32:56.200Z,17.70
2019-06-26T22:35:24.956Z,17.72
2019-06-26T22:37:53.694Z,17.92
2019-06-26T22:40:22.492Z,17.78
2019-06-26T22:42:51.174Z,17.71
2019-06-26T22:45:20.105Z,17.57
2019-06-26T22:47:48.842Z,17.48
2019-06-26T22:50:18.024Z,17.51
2019-06-26T22:52:47.198Z,17.41
2019-06-26T22:55:16.053Z,17.46
2019-06-26T22:57:45.107Z,17.25
2019-06-26T23:00:15.832Z,17.12
2019-06-26T23:02:45.067Z,17.16
2019-06-26T23:05:13.922Z,17.08
2019-06-26T23:07:42.818Z,16.95
2019-06-26T23:10:11.988Z,16.94
2019-06-26T23:12:40.673Z,16.97
2019-06-26T23:15:09.794Z,16.78
2019-06-26T23:17:38.853Z,16.89
2019-06-26T23:20:08.144Z,16.87
2019-06-26T23:22:37.514Z,16.67
2019-06-26T23:25:06.640Z,16.69
2019-06-26T23:27:35.680Z,16.64
2019-06-26T23:30:04.985Z,16.66
2019-06-26T23:32:33.811Z,16.60
2019-06-26T23:35:02.754Z,16.55
2019-06-26T23:37:34.780Z,16.54
2019-06-26T23:40:03.485Z,16.53
2019-06-26T23:42:32.880Z,16.52
2019-06-26T23:45:01.631Z,16.52
2019-06-26T23:47:30.600Z,16.46
2019-06-26T23:49:59.570Z,16.48
2019-06-26T23:52:28.575Z,16.34
2019-06-26T23:54:57.652Z,16.28
2019-06-26T23:57:26.381Z,16.25
2019-06-26T23:59:55.200Z,16.24
